createdAt,value
2022-12-25T00:00:15.216Z,101614.09
2022-12-25T00:03:19.946Z,101610.78
2022-12-25T00:06:21.366Z,101615.88
2022-12-25T00:09:22.769Z,101619.38
2022-12-25T00:12:24.299Z,101621.13
2022-12-25T00:15:25.672Z,101632.31
2022-12-25T00:18:27.006Z,101633.22
2022-12-25T00:21:28.704Z,101634.09
2022-12-25T00:24:30.181Z,101636.66
2022-12-25T00:27:32.608Z,101636.69
2022-12-25T00:30:33.943Z,101635.81
2022-12-25T00:33:40.497Z,101634.97
2022-12-25T00:36:42.453Z,101635.00
2022-12-25T00:39:43.861Z,101637.50
2022-12-25T00:42:45.183Z,101631.50
2022-12-25T00:46:00.745Z,101628.94
2022-12-25T00:49:02.911Z,101629.00
2022-12-25T00:52:04.470Z,101620.56
2022-12-25T00:55:06.257Z,101620.69
2022-12-25T00:58:07.587Z,101617.41
2022-12-25T01:01:13.990Z,101614.88
2022-12-25T01:04:15.583Z,101617.53
2022-12-25T01:07:17.532Z,101627.81
2022-12-25T01:10:18.897Z,101625.25
2022-12-25T01:13:20.307Z,101633.75
2022-12-25T01:16:21.819Z,101643.22
2022-12-25T01:19:23.198Z,101648.41
2022-12-25T01:22:24.577Z,101659.50
2022-12-25T01:25:25.934Z,101653.56
2022-12-25T01:28:27.295Z,101661.25
2022-12-25T01:31:28.713Z,101665.50
2022-12-25T01:34:30.184Z,101674.03
2022-12-25T01:37:31.557Z,101667.16
2022-12-25T01:40:34.655Z,101678.13
2022-12-25T01:43:36.096Z,101687.34
2022-12-25T01:46:37.450Z,101682.94
2022-12-25T01:49:40.737Z,101676.91
2022-12-25T01:52:42.195Z,101686.25
2022-12-25T01:55:47.808Z,101683.66
2022-12-25T01:58:49.372Z,101689.56
2022-12-25T02:01:51.188Z,101683.56
2022-12-25T02:05:01.359Z,101689.44
2022-12-25T02:08:11.409Z,101679.22
2022-12-25T02:11:12.821Z,101679.31
2022-12-25T02:14:14.436Z,101686.25
2022-12-25T02:17:26.496Z,101688.88
2022-12-25T02:20:33.096Z,101678.75
2022-12-25T02:23:56.230Z,101697.53
2022-12-25T02:27:22.077Z,101705.19
2022-12-25T02:30:26.206Z,101715.38
2022-12-25T02:33:39.929Z,101700.94
2022-12-25T02:37:06.084Z,101688.19
2022-12-25T02:40:17.154Z,101701.88
2022-12-25T02:43:23.739Z,101690.03
2022-12-25T02:46:27.458Z,101684.94
2022-12-25T02:49:30.861Z,101680.75
2022-12-25T02:52:32.157Z,101681.75
2022-12-25T02:55:38.085Z,101683.44
2022-12-25T02:58:42.552Z,101680.09
2022-12-25T03:01:44.885Z,101678.47
2022-12-25T03:04:48.556Z,101675.06
2022-12-25T03:07:50.400Z,101679.31
2022-12-25T03:11:03.518Z,101680.97
2022-12-25T03:14:08.303Z,101691.97
2022-12-25T03:17:09.779Z,101687.69
2022-12-25T03:20:11.546Z,101687.69
2022-12-25T03:23:16.185Z,101697.03
2022-12-25T03:26:17.826Z,101680.00
2022-12-25T03:29:19.270Z,101675.75
2022-12-25T03:32:38.889Z,101664.69
2022-12-25T03:35:48.361Z,101666.38
2022-12-25T03:39:03.638Z,101664.69
2022-12-25T03:42:06.894Z,101668.06
2022-12-25T03:45:17.321Z,101675.72
2022-12-25T03:48:19.602Z,101663.00
2022-12-25T03:51:29.763Z,101651.13
2022-12-25T03:54:35.020Z,101659.59
2022-12-25T03:57:36.510Z,101654.50
2022-12-25T04:00:37.981Z,101645.97
2022-12-25T04:03:39.347Z,101643.38
2022-12-25T04:06:41.116Z,101632.22
2022-12-25T04:09:42.451Z,101616.91
2022-12-25T04:12:43.781Z,101610.00
2022-12-25T04:15:45.198Z,101627.81
2022-12-25T04:18:46.573Z,101615.00
2022-12-25T04:21:47.978Z,101611.59
2022-12-25T04:24:49.351Z,101607.31
2022-12-25T04:27:50.689Z,101609.03
2022-12-25T04:30:52.100Z,101616.75
2022-12-25T04:33:53.458Z,101608.31
2022-12-25T04:36:54.812Z,101615.13
2022-12-25T04:39:56.271Z,101615.16
2022-12-25T04:42:57.599Z,101608.41
2022-12-25T04:46:00.837Z,101603.31
2022-12-25T04:49:02.436Z,101602.47
2022-12-25T04:52:03.915Z,101595.63
2022-12-25T04:55:06.691Z,101593.88
2022-12-25T04:58:08.163Z,101594.63
2022-12-25T05:01:10.862Z,101592.84
2022-12-25T05:04:12.190Z,101586.00
2022-12-25T05:07:13.635Z,101593.63
2022-12-25T05:10:15.217Z,101594.41
2022-12-25T05:13:16.625Z,101591.88
2022-12-25T05:16:19.940Z,101588.47
2022-12-25T05:19:21.359Z,101579.25
2022-12-25T05:22:22.734Z,101577.47
2022-12-25T05:25:24.142Z,101580.88
2022-12-25T05:28:25.648Z,101581.72
2022-12-25T05:31:27.008Z,101580.81
2022-12-25T05:34:28.466Z,101569.72
2022-12-25T05:37:29.853Z,101573.09
2022-12-25T05:40:31.432Z,101557.72
2022-12-25T05:43:32.941Z,101562.81
2022-12-25T05:46:34.344Z,101559.44
2022-12-25T05:49:35.739Z,101564.53
2022-12-25T05:52:37.114Z,101549.19
2022-12-25T05:55:40.450Z,101544.88
2022-12-25T05:58:41.848Z,101547.44
2022-12-25T06:01:43.467Z,101545.75
2022-12-25T06:04:45.121Z,101550.88
2022-12-25T06:07:46.596Z,101548.34
2022-12-25T06:10:48.265Z,101551.75
2022-12-25T06:13:54.112Z,101564.53
2022-12-25T06:16:55.715Z,101559.44
2022-12-25T06:19:57.133Z,101575.66
2022-12-25T06:22:58.586Z,101581.66
2022-12-25T06:25:59.960Z,101574.03
2022-12-25T06:29:01.479Z,101573.25
2022-12-25T06:32:03.177Z,101577.47
2022-12-25T06:35:05.837Z,101575.78
2022-12-25T06:38:07.245Z,101575.75
2022-12-25T06:41:17.207Z,101583.34
2022-12-25T06:44:18.557Z,101582.44
2022-12-25T06:47:19.947Z,101571.31
2022-12-25T06:50:21.286Z,101573.06
2022-12-25T06:53:22.661Z,101573.03
2022-12-25T06:56:26.846Z,101576.41
2022-12-25T06:59:28.219Z,101582.31
2022-12-25T07:02:31.029Z,101594.19
2022-12-25T07:05:32.488Z,101600.94
2022-12-25T07:08:33.831Z,101609.41
2022-12-25T07:11:35.682Z,101600.88
2022-12-25T07:14:37.107Z,101601.69
2022-12-25T07:17:38.477Z,101603.38
2022-12-25T07:20:39.832Z,101602.50
2022-12-25T07:23:42.331Z,101597.31
2022-12-25T07:26:43.694Z,101598.13
2022-12-25T07:29:45.068Z,101588.66
2022-12-25T07:32:50.091Z,101586.03
2022-12-25T07:35:51.759Z,101586.84
2022-12-25T07:38:53.112Z,101597.06
2022-12-25T07:41:54.512Z,101591.09
2022-12-25T07:44:56.005Z,101583.41
2022-12-25T07:48:02.724Z,101586.72
2022-12-25T07:51:10.111Z,101583.28
2022-12-25T07:54:11.488Z,101576.44
2022-12-25T07:57:12.826Z,101578.94
2022-12-25T08:00:15.076Z,101581.44
2022-12-25T08:03:16.521Z,101568.63
2022-12-25T08:06:19.076Z,101564.34
2022-12-25T08:09:20.443Z,101556.63
2022-12-25T08:12:21.852Z,101557.41
2022-12-25T08:15:23.218Z,101553.06
2022-12-25T08:18:29.941Z,101555.53
2022-12-25T08:21:31.876Z,101552.06
2022-12-25T08:24:33.276Z,101558.00
2022-12-25T08:27:35.328Z,101549.41
2022-12-25T08:30:40.603Z,101553.59
2022-12-25T08:33:43.066Z,101552.69
2022-12-25T08:36:44.473Z,101550.09
2022-12-25T08:39:45.942Z,101544.91
2022-12-25T08:42:47.299Z,101549.91
2022-12-25T08:45:48.832Z,101549.84
2022-12-25T08:48:50.499Z,101559.97
2022-12-25T08:51:51.819Z,101565.81
2022-12-25T08:54:53.163Z,101569.91
2022-12-25T08:57:54.532Z,101580.81
2022-12-25T09:00:56.501Z,101575.53
2022-12-25T09:03:57.923Z,101574.59
2022-12-25T09:06:59.261Z,101579.66
2022-12-25T09:10:00.622Z,101579.50
2022-12-25T09:13:02.125Z,101567.47
2022-12-25T09:16:08.779Z,101562.25
2022-12-25T09:19:10.201Z,101570.72
2022-12-25T09:22:11.569Z,101580.00
2022-12-25T09:25:12.955Z,101580.78
2022-12-25T09:28:14.321Z,101576.41
2022-12-25T09:31:16.018Z,101568.63
2022-12-25T09:34:19.160Z,101571.97
2022-12-25T09:37:20.676Z,101574.41
2022-12-25T09:40:25.524Z,101570.91
2022-12-25T09:43:30.920Z,101569.09
2022-12-25T09:46:47.147Z,101567.41
2022-12-25T09:50:04.008Z,101574.13
2022-12-25T09:53:22.845Z,101573.97
2022-12-25T09:56:25.381Z,101574.72
2022-12-25T09:59:27.127Z,101582.38
2022-12-25T10:02:53.617Z,101582.38
2022-12-25T10:05:58.190Z,101573.78
2022-12-25T10:09:11.741Z,101582.31
2022-12-25T10:12:27.694Z,101571.38
2022-12-25T10:15:53.542Z,101566.91
2022-12-25T10:19:04.622Z,101565.97
2022-12-25T10:22:27.771Z,101570.16
2022-12-25T10:25:31.566Z,101555.59
2022-12-25T10:28:43.426Z,101545.25
2022-12-25T10:31:51.182Z,101539.25
2022-12-25T10:34:52.598Z,101522.94
2022-12-25T10:38:05.816Z,101524.66
2022-12-25T10:41:48.920Z,101529.69
2022-12-25T10:45:04.823Z,101520.25
2022-12-25T10:48:07.963Z,101526.19
2022-12-25T10:51:09.577Z,101518.44
2022-12-25T10:54:29.644Z,101507.34
2022-12-25T10:57:31.004Z,101498.66
2022-12-25T11:00:32.656Z,101498.56
2022-12-25T11:03:38.017Z,101489.13
2022-12-25T11:06:39.450Z,101483.13
2022-12-25T11:09:48.604Z,101477.06
2022-12-25T11:12:51.035Z,101470.19
2022-12-25T11:16:03.603Z,101465.03
2022-12-25T11:19:24.364Z,101454.72
2022-12-25T11:22:26.899Z,101461.44
2022-12-25T11:25:28.273Z,101461.41
2022-12-25T11:28:32.925Z,101457.16
2022-12-25T11:31:41.220Z,101446.00
2022-12-25T11:34:45.950Z,101452.84
2022-12-25T11:37:52.488Z,101457.88
2022-12-25T11:41:03.487Z,101450.13
2022-12-25T11:44:18.953Z,101456.13
2022-12-25T11:47:45.078Z,101451.00
2022-12-25T11:50:53.677Z,101460.34
2022-12-25T11:54:00.158Z,101451.81
2022-12-25T11:57:05.805Z,101443.28
2022-12-25T12:00:13.902Z,101452.66
2022-12-25T12:03:27.232Z,101451.88
2022-12-25T12:07:00.802Z,101455.34
2022-12-25T12:10:15.397Z,101446.81
2022-12-25T12:13:16.704Z,101448.44
2022-12-25T12:16:18.352Z,101445.88
2022-12-25T12:19:28.585Z,101448.38
2022-12-25T12:22:29.968Z,101439.81
2022-12-25T12:25:31.570Z,101429.53
2022-12-25T12:28:43.774Z,101426.16
2022-12-25T12:31:48.444Z,101415.81
2022-12-25T12:34:50.002Z,101422.69
2022-12-25T12:38:14.051Z,101411.56
2022-12-25T12:41:15.897Z,101414.94
2022-12-25T12:44:18.192Z,101398.69
2022-12-25T12:47:42.961Z,101385.91
2022-12-25T12:50:44.379Z,101386.66
2022-12-25T12:53:45.746Z,101382.34
2022-12-25T12:56:56.335Z,101365.25
2022-12-25T13:00:03.152Z,101366.00
2022-12-25T13:03:09.694Z,101370.25
2022-12-25T13:06:26.065Z,101371.06
2022-12-25T13:09:46.835Z,101349.59
2022-12-25T13:12:53.128Z,101352.06
2022-12-25T13:15:54.660Z,101354.69
2022-12-25T13:18:56.640Z,101348.72
2022-12-25T13:22:03.830Z,101338.50
2022-12-25T13:25:16.542Z,101328.28
2022-12-25T13:28:24.737Z,101324.03
2022-12-25T13:31:28.991Z,101322.28
2022-12-25T13:34:38.399Z,101320.53
2022-12-25T13:37:39.775Z,101324.78
2022-12-25T13:40:41.169Z,101329.06
2022-12-25T13:43:44.199Z,101329.06
2022-12-25T13:46:46.094Z,101327.47
2022-12-25T13:49:48.605Z,101331.97
2022-12-25T13:52:50.390Z,101335.53
2022-12-25T13:55:54.416Z,101333.94
2022-12-25T13:58:56.014Z,101327.25
2022-12-25T14:01:57.625Z,101319.66
2022-12-25T14:04:59.152Z,101326.53
2022-12-25T14:08:03.172Z,101326.59
2022-12-25T14:11:05.976Z,101331.72
2022-12-25T14:14:17.181Z,101324.06
2022-12-25T14:17:19.191Z,101314.72
2022-12-25T14:20:23.023Z,101309.56
2022-12-25T14:23:24.673Z,101302.81
2022-12-25T14:26:29.244Z,101295.19
2022-12-25T14:29:42.491Z,101285.84
2022-12-25T14:32:47.783Z,101287.66
2022-12-25T14:35:50.268Z,101280.97
2022-12-25T14:39:04.391Z,101279.38
2022-12-25T14:42:20.685Z,101272.69
2022-12-25T14:45:48.596Z,101276.94
2022-12-25T14:48:59.706Z,101265.13
2022-12-25T14:52:27.982Z,101261.94
2022-12-25T14:55:30.396Z,101267.94
2022-12-25T14:58:37.510Z,101261.94
2022-12-25T15:01:41.228Z,101271.41
2022-12-25T15:04:43.331Z,101281.66
2022-12-25T15:07:44.643Z,101271.38
2022-12-25T15:11:03.270Z,101271.31
2022-12-25T15:14:05.041Z,101268.75
2022-12-25T15:17:06.489Z,101258.47
2022-12-25T15:20:12.302Z,101257.53
2022-12-25T15:23:19.778Z,101249.00
2022-12-25T15:26:21.786Z,101249.06
2022-12-25T15:29:44.569Z,101236.19
2022-12-25T15:32:44.486Z,101233.63
2022-12-25T15:35:46.173Z,101227.56
2022-12-25T15:38:47.599Z,101225.84
2022-12-25T15:41:49.121Z,101228.34
2022-12-25T15:44:51.408Z,101225.69
2022-12-25T15:47:53.083Z,101223.13
2022-12-25T15:50:54.449Z,101212.97
2022-12-25T15:53:56.000Z,101213.84
2022-12-25T15:57:01.936Z,101219.94
2022-12-25T16:00:05.226Z,101208.84
2022-12-25T16:03:13.213Z,101200.38
2022-12-25T16:06:16.886Z,101205.47
2022-12-25T16:09:19.489Z,101195.25
2022-12-25T16:12:20.923Z,101196.97
2022-12-25T16:15:22.297Z,101205.41
2022-12-25T16:18:23.777Z,101201.94
2022-12-25T16:21:26.073Z,101201.88
2022-12-25T16:24:27.459Z,101203.59
2022-12-25T16:27:28.853Z,101195.06
2022-12-25T16:30:30.355Z,101191.63
2022-12-25T16:33:31.922Z,101185.72
2022-12-25T16:36:33.891Z,101175.56
2022-12-25T16:39:35.230Z,101173.09
2022-12-25T16:42:37.904Z,101167.97
2022-12-25T16:45:39.860Z,101168.06
2022-12-25T16:48:41.461Z,101159.47
2022-12-25T16:51:42.829Z,101151.78
2022-12-25T16:54:47.323Z,101152.69
2022-12-25T16:57:48.711Z,101153.47
2022-12-25T17:00:50.064Z,101148.13
2022-12-25T17:03:51.545Z,101142.09
2022-12-25T17:06:52.917Z,101140.34
2022-12-25T17:09:54.290Z,101139.47
2022-12-25T17:12:55.629Z,101134.34
2022-12-25T17:15:57.079Z,101137.72
2022-12-25T17:19:01.059Z,101131.72
2022-12-25T17:22:02.432Z,101132.63
2022-12-25T17:25:04.273Z,101125.81
2022-12-25T17:28:05.638Z,101121.56
2022-12-25T17:31:09.611Z,101122.44
2022-12-25T17:34:11.466Z,101114.06
2022-12-25T17:37:12.810Z,101113.25
2022-12-25T17:40:14.201Z,101114.16
2022-12-25T17:43:20.549Z,101103.06
2022-12-25T17:46:25.623Z,101105.72
2022-12-25T17:49:27.044Z,101097.25
2022-12-25T17:52:28.429Z,101093.03
2022-12-25T17:55:29.771Z,101090.44
2022-12-25T17:58:31.150Z,101079.28
2022-12-25T18:01:32.752Z,101072.44
2022-12-25T18:04:34.165Z,101068.13
2022-12-25T18:07:35.491Z,101068.13
2022-12-25T18:10:38.338Z,101070.69
2022-12-25T18:13:39.693Z,101064.84
2022-12-25T18:16:42.961Z,101065.75
2022-12-25T18:19:44.301Z,101059.88
2022-12-25T18:22:45.669Z,101055.63
2022-12-25T18:25:47.223Z,101054.84
2022-12-25T18:28:49.718Z,101053.09
2022-12-25T18:31:51.142Z,101051.47
2022-12-25T18:34:53.982Z,101054.78
2022-12-25T18:37:55.894Z,101049.66
2022-12-25T18:40:57.272Z,101040.22
2022-12-25T18:43:59.612Z,101037.66
2022-12-25T18:47:00.954Z,101032.53
2022-12-25T18:50:03.026Z,101018.03
2022-12-25T18:53:05.600Z,101012.94
2022-12-25T18:56:13.450Z,101009.59
2022-12-25T18:59:14.797Z,101013.00
2022-12-25T19:02:16.775Z,101017.22
2022-12-25T19:05:18.202Z,101002.69
2022-12-25T19:08:19.548Z,101003.56
2022-12-25T19:11:22.536Z,101001.94
2022-12-25T19:14:25.360Z,100991.88
2022-12-25T19:17:31.599Z,100995.44
2022-12-25T19:20:33.355Z,100993.84
2022-12-25T19:23:35.062Z,100991.28
2022-12-25T19:26:36.396Z,100994.66
2022-12-25T19:29:37.753Z,100990.31
2022-12-25T19:32:39.205Z,100985.91
2022-12-25T19:35:40.748Z,100979.91
2022-12-25T19:38:43.077Z,100971.38
2022-12-25T19:41:44.431Z,100965.41
2022-12-25T19:44:45.791Z,100962.00
2022-12-25T19:47:47.205Z,100957.72
2022-12-25T19:50:49.244Z,100950.81
2022-12-25T19:53:51.319Z,100962.78
2022-12-25T19:56:52.674Z,100961.91
2022-12-25T19:59:54.043Z,100957.63
2022-12-25T20:02:55.500Z,100944.78
2022-12-25T20:05:57.062Z,100937.09
2022-12-25T20:09:02.126Z,100936.97
2022-12-25T20:12:03.669Z,100938.66
2022-12-25T20:15:06.974Z,100944.56
2022-12-25T20:18:08.361Z,100952.22
2022-12-25T20:21:15.607Z,100949.59
2022-12-25T20:24:16.938Z,100955.56
2022-12-25T20:27:18.348Z,100956.41
2022-12-25T20:30:19.847Z,100964.91
2022-12-25T20:33:21.666Z,100964.03
2022-12-25T20:36:23.223Z,100954.66
2022-12-25T20:39:24.611Z,100945.16
2022-12-25T20:42:26.371Z,100948.50
2022-12-25T20:45:27.864Z,100950.00
2022-12-25T20:48:29.366Z,100954.28
2022-12-25T20:51:30.869Z,100949.84
2022-12-25T20:54:33.178Z,100949.91
2022-12-25T20:57:34.594Z,100949.84
2022-12-25T21:00:39.392Z,100956.63
2022-12-25T21:03:41.499Z,100952.38
2022-12-25T21:06:43.007Z,100954.16
2022-12-25T21:09:44.389Z,100949.03
2022-12-25T21:12:45.739Z,100943.91
2022-12-25T21:15:48.745Z,100949.84
2022-12-25T21:18:52.413Z,100961.84
2022-12-25T21:21:53.796Z,100952.38
2022-12-25T21:24:55.173Z,100954.06
2022-12-25T21:27:58.266Z,100948.13
2022-12-25T21:31:03.546Z,100961.81
2022-12-25T21:34:04.914Z,100958.31
2022-12-25T21:37:06.293Z,100954.06
2022-12-25T21:40:12.800Z,100943.84
2022-12-25T21:43:17.453Z,100940.41
2022-12-25T21:46:19.429Z,100940.34
2022-12-25T21:49:20.977Z,100942.88
2022-12-25T21:52:22.352Z,100932.56
2022-12-25T21:55:23.761Z,100932.72
2022-12-25T21:58:25.122Z,100931.84
2022-12-25T22:01:27.558Z,100928.50
2022-12-25T22:04:29.026Z,100927.72
2022-12-25T22:07:30.420Z,100920.94
2022-12-25T22:10:31.793Z,100925.31
2022-12-25T22:13:33.187Z,100921.88
2022-12-25T22:16:34.602Z,100923.47
2022-12-25T22:19:35.991Z,100930.28
2022-12-25T22:22:37.386Z,100920.00
2022-12-25T22:25:38.773Z,100922.63
2022-12-25T22:28:40.137Z,100928.59
2022-12-25T22:31:46.607Z,100925.16
2022-12-25T22:34:48.543Z,100924.38
2022-12-25T22:37:50.304Z,100914.16
2022-12-25T22:40:51.658Z,100917.50
2022-12-25T22:44:16.606Z,100913.19
2022-12-25T22:47:14.383Z,100922.59
2022-12-25T22:50:16.239Z,100925.16
2022-12-25T22:53:17.739Z,100933.72
2022-12-25T22:56:19.096Z,100931.97
2022-12-25T22:59:22.208Z,100931.13
2022-12-25T23:02:23.865Z,100921.69
2022-12-25T23:05:25.306Z,100940.59
2022-12-25T23:08:26.672Z,100938.03
2022-12-25T23:11:28.220Z,100940.59
2022-12-25T23:14:29.589Z,100943.16
2022-12-25T23:17:30.949Z,100933.72
2022-12-25T23:20:32.631Z,100933.78
2022-12-25T23:23:34.018Z,100938.94
2022-12-25T23:26:35.353Z,100948.38
2022-12-25T23:29:37.058Z,100955.28
2022-12-25T23:32:39.422Z,100957.00
2022-12-25T23:35:41.059Z,100948.53
2022-12-25T23:38:42.433Z,100937.31
2022-12-25T23:41:43.990Z,100939.06
2022-12-25T23:44:45.337Z,100931.38
2022-12-25T23:47:46.676Z,100918.50
2022-12-25T23:50:48.046Z,100923.63
2022-12-25T23:53:49.445Z,100914.16
2022-12-25T23:56:51.238Z,100915.81
2022-12-25T23:59:52.574Z,100917.56
